createdAt,value
2022-09-30T00:01:52.031Z,2.00
2022-09-30T00:04:25.195Z,2.03
2022-09-30T00:06:54.424Z,1.98
2022-09-30T00:09:23.086Z,2.08
2022-09-30T00:11:51.901Z,1.75
2022-09-30T00:14:22.782Z,2.97
2022-09-30T00:16:51.303Z,2.20
2022-09-30T00:19:19.285Z,1.70
2022-09-30T00:21:46.959Z,3.00
2022-09-30T00:24:14.755Z,2.20
2022-09-30T00:26:42.411Z,2.05
2022-09-30T00:29:11.520Z,2.15
2022-09-30T00:31:39.598Z,2.12
2022-09-30T00:34:11.444Z,2.25
2022-09-30T00:36:53.341Z,2.37
2022-09-30T00:39:24.124Z,2.92
2022-09-30T00:41:54.790Z,2.50
2022-09-30T00:44:58.145Z,2.08
2022-09-30T00:47:31.582Z,3.95
2022-09-30T00:50:06.058Z,2.33
2022-09-30T00:52:35.200Z,2.92
2022-09-30T00:55:09.356Z,2.20
2022-09-30T00:57:38.131Z,1.85
2022-09-30T01:00:06.589Z,2.83
2022-09-30T01:02:35.126Z,2.62
2022-09-30T01:05:03.793Z,2.58
2022-09-30T01:07:31.478Z,2.40
2022-09-30T01:09:59.621Z,2.80
2022-09-30T01:12:27.851Z,2.28
2022-09-30T01:14:58.926Z,3.33
2022-09-30T01:17:48.190Z,3.65
2022-09-30T01:20:22.812Z,5.72
2022-09-30T01:23:20.351Z,9.27
2022-09-30T01:26:18.753Z,2.37
2022-09-30T01:29:13.015Z,2.10
2022-09-30T01:31:46.520Z,2.97
2022-09-30T01:34:23.115Z,2.53
2022-09-30T01:37:00.510Z,2.10
2022-09-30T01:39:39.207Z,2.37
2022-09-30T01:42:37.666Z,2.22
2022-09-30T01:45:08.901Z,2.20
2022-09-30T01:48:15.394Z,4.00
2022-09-30T01:50:55.322Z,1.83
2022-09-30T01:53:25.955Z,2.58
2022-09-30T01:56:01.819Z,2.15
2022-09-30T01:58:51.488Z,2.10
2022-09-30T02:01:35.396Z,2.40
2022-09-30T02:04:09.871Z,2.00
2022-09-30T02:06:42.884Z,2.15
2022-09-30T02:09:13.410Z,3.37
2022-09-30T02:11:43.369Z,2.20
2022-09-30T02:14:20.904Z,2.55
2022-09-30T02:17:00.554Z,2.65
2022-09-30T02:19:38.169Z,2.53
2022-09-30T02:22:14.431Z,3.00
2022-09-30T02:24:45.048Z,3.00
2022-09-30T02:27:31.636Z,2.33
2022-09-30T02:30:02.769Z,2.70
2022-09-30T02:32:40.569Z,4.62
2022-09-30T02:35:20.077Z,2.12
2022-09-30T02:37:53.866Z,2.78
2022-09-30T02:40:38.216Z,4.30
2022-09-30T02:43:06.628Z,3.15
2022-09-30T02:45:51.140Z,2.55
2022-09-30T02:48:39.627Z,1.90
2022-09-30T02:51:23.470Z,4.18
2022-09-30T02:54:33.340Z,3.33
2022-09-30T02:57:06.087Z,2.50
2022-09-30T02:59:34.121Z,2.17
2022-09-30T03:02:02.149Z,2.53
2022-09-30T03:04:34.438Z,2.60
2022-09-30T03:07:02.812Z,3.42
2022-09-30T03:09:30.635Z,2.60
2022-09-30T03:12:18.340Z,2.78
2022-09-30T03:15:00.687Z,3.58
2022-09-30T03:17:28.273Z,2.50
2022-09-30T03:20:35.801Z,2.50
2022-09-30T03:23:37.370Z,2.35
2022-09-30T03:26:31.933Z,4.37
2022-09-30T03:29:37.440Z,3.25
2022-09-30T03:32:17.019Z,3.62
2022-09-30T03:34:47.480Z,4.53
2022-09-30T03:37:26.043Z,2.30
2022-09-30T03:40:00.433Z,4.07
2022-09-30T03:42:34.083Z,2.65
2022-09-30T03:45:47.725Z,3.28
2022-09-30T03:48:17.152Z,2.83
2022-09-30T03:50:46.189Z,4.00
2022-09-30T03:53:14.437Z,3.03
2022-09-30T03:55:55.395Z,3.35
2022-09-30T03:58:24.805Z,3.08
2022-09-30T04:00:54.758Z,4.12
2022-09-30T04:03:24.452Z,2.97
2022-09-30T04:05:52.118Z,3.05
2022-09-30T04:08:19.866Z,2.92
2022-09-30T04:10:47.560Z,2.75
2022-09-30T04:13:15.299Z,2.83
2022-09-30T04:15:43.365Z,2.58
2022-09-30T04:18:11.044Z,3.00
2022-09-30T04:20:39.543Z,3.35
2022-09-30T04:23:07.158Z,2.90
2022-09-30T04:25:34.809Z,2.08
2022-09-30T04:28:03.037Z,4.70
2022-09-30T04:30:33.604Z,2.10
2022-09-30T04:33:01.642Z,1.80
2022-09-30T04:35:31.146Z,2.72
2022-09-30T04:37:58.829Z,2.37
2022-09-30T04:46:09.966Z,3.08
2022-09-30T04:48:37.591Z,1.77
2022-09-30T04:51:05.287Z,2.08
2022-09-30T04:53:33.034Z,2.25
2022-09-30T04:56:02.339Z,2.55
2022-09-30T04:58:36.051Z,2.58
2022-09-30T05:01:15.951Z,2.45
2022-09-30T05:03:44.517Z,2.28
2022-09-30T05:06:12.782Z,2.35
2022-09-30T05:08:44.628Z,2.67
2022-09-30T05:11:18.559Z,2.72
2022-09-30T05:13:46.847Z,2.40
2022-09-30T05:16:16.039Z,2.97
2022-09-30T05:18:46.782Z,2.47
2022-09-30T05:21:17.479Z,3.00
2022-09-30T05:23:45.391Z,2.72
2022-09-30T05:26:13.542Z,2.45
2022-09-30T05:28:42.474Z,3.35
2022-09-30T05:31:10.430Z,2.85
2022-09-30T05:33:38.230Z,5.60
2022-09-30T05:36:08.701Z,3.28
2022-09-30T05:38:36.656Z,2.87
2022-09-30T05:41:09.851Z,3.78
2022-09-30T05:43:40.157Z,3.17
2022-09-30T05:49:07.005Z,3.40
2022-09-30T05:51:34.628Z,3.40
2022-09-30T05:54:02.255Z,3.50
2022-09-30T05:56:29.885Z,3.15
2022-09-30T05:58:57.567Z,5.47
2022-09-30T06:01:25.256Z,2.78
2022-09-30T06:03:53.153Z,2.87
2022-09-30T06:06:21.285Z,3.45
2022-09-30T06:08:49.108Z,2.80
2022-09-30T06:11:19.657Z,3.55
2022-09-30T06:13:48.836Z,3.08
2022-09-30T06:16:19.109Z,3.33
2022-09-30T06:18:46.761Z,3.65
2022-09-30T06:21:16.845Z,3.50
2022-09-30T06:23:44.922Z,3.30
2022-09-30T06:26:15.393Z,3.60
2022-09-30T06:28:43.843Z,2.90
2022-09-30T06:31:12.378Z,4.70
2022-09-30T06:33:40.070Z,2.83
2022-09-30T06:36:08.248Z,3.08
2022-09-30T06:38:40.438Z,4.40
2022-09-30T06:41:08.998Z,3.28
2022-09-30T06:43:50.949Z,3.47
2022-09-30T06:46:30.722Z,3.70
2022-09-30T06:49:13.390Z,4.15
2022-09-30T06:51:41.776Z,3.10
2022-09-30T06:54:10.237Z,4.03
2022-09-30T06:56:38.110Z,3.60
2022-09-30T06:59:05.835Z,5.75
2022-09-30T07:01:33.496Z,4.55
2022-09-30T07:04:01.930Z,3.95
2022-09-30T07:06:29.584Z,5.47
2022-09-30T07:08:57.897Z,3.20
2022-09-30T07:11:25.936Z,4.85
2022-09-30T07:13:53.595Z,3.15
2022-09-30T07:16:22.356Z,3.45
2022-09-30T07:18:50.034Z,4.35
2022-09-30T07:21:18.010Z,3.75
2022-09-30T07:23:49.845Z,4.90
2022-09-30T07:26:20.589Z,4.70
2022-09-30T07:28:48.759Z,3.85
2022-09-30T07:31:38.017Z,3.92
2022-09-30T07:34:08.206Z,4.28
2022-09-30T07:36:38.847Z,3.87
2022-09-30T07:39:09.113Z,3.92
2022-09-30T07:41:39.904Z,4.50
2022-09-30T07:44:11.013Z,3.72
2022-09-30T07:46:41.404Z,4.78
2022-09-30T07:49:15.537Z,3.40
2022-09-30T07:51:46.940Z,4.25
2022-09-30T07:54:18.096Z,4.65
2022-09-30T07:59:37.988Z,5.12
2022-09-30T08:02:07.813Z,3.42
2022-09-30T08:04:39.256Z,4.70
2022-09-30T08:07:11.318Z,3.80
2022-09-30T08:09:38.967Z,3.42
2022-09-30T08:12:06.957Z,4.22
2022-09-30T08:14:36.047Z,2.97
2022-09-30T08:17:03.748Z,2.70
2022-09-30T08:19:32.393Z,3.00
2022-09-30T08:22:00.346Z,2.60
2022-09-30T08:24:28.338Z,2.62
2022-09-30T08:26:56.837Z,2.83
2022-09-30T08:32:12.481Z,2.55
2022-09-30T08:34:40.111Z,1.95
2022-09-30T08:37:09.462Z,2.78
2022-09-30T08:39:38.968Z,2.03
2022-09-30T08:42:35.603Z,2.03
2022-09-30T08:45:18.257Z,3.33
2022-09-30T08:48:09.912Z,2.75
2022-09-30T08:50:49.040Z,2.08
2022-09-30T08:53:41.103Z,1.83
2022-09-30T08:56:12.847Z,1.52
2022-09-30T08:58:45.439Z,1.67
2022-09-30T09:01:22.372Z,1.77
2022-09-30T09:03:50.100Z,1.73
2022-09-30T09:06:45.776Z,2.15
2022-09-30T09:09:23.205Z,14.27
2022-09-30T09:12:04.361Z,16.05
2022-09-30T09:14:54.162Z,3.60
2022-09-30T09:17:24.626Z,2.92
2022-09-30T09:20:26.449Z,2.03
2022-09-30T09:22:54.198Z,2.20
2022-09-30T09:25:29.266Z,2.33
2022-09-30T09:28:03.313Z,3.58
2022-09-30T09:30:37.369Z,2.30
2022-09-30T09:33:20.952Z,1.90
2022-09-30T09:36:27.229Z,1.70
2022-09-30T09:39:09.011Z,1.75
2022-09-30T09:41:53.663Z,2.40
2022-09-30T09:44:41.878Z,2.00
2022-09-30T09:47:18.299Z,2.62
2022-09-30T09:49:48.022Z,2.72
2022-09-30T09:52:15.662Z,2.12
2022-09-30T09:54:47.081Z,1.77
2022-09-30T09:57:18.413Z,2.20
2022-09-30T10:00:23.837Z,2.08
2022-09-30T10:03:10.183Z,2.00
2022-09-30T10:05:40.791Z,2.10
2022-09-30T10:08:20.448Z,2.30
2022-09-30T10:10:51.234Z,2.78
2022-09-30T10:13:24.662Z,2.45
2022-09-30T10:15:55.798Z,2.28
2022-09-30T10:18:37.621Z,2.30
2022-09-30T10:21:24.094Z,1.90
2022-09-30T10:23:51.764Z,1.70
2022-09-30T10:26:22.835Z,1.90
2022-09-30T10:28:56.183Z,2.58
2022-09-30T10:31:32.759Z,3.85
2022-09-30T10:34:26.607Z,2.85
2022-09-30T10:36:55.667Z,1.65
2022-09-30T10:39:32.195Z,1.77
2022-09-30T10:42:17.214Z,1.48
2022-09-30T10:44:47.028Z,2.05
2022-09-30T10:47:23.354Z,1.80
2022-09-30T10:50:06.380Z,1.60
2022-09-30T10:52:37.623Z,1.45
2022-09-30T10:55:15.693Z,1.70
2022-09-30T10:57:45.649Z,1.30
2022-09-30T11:00:17.095Z,1.50
2022-09-30T11:03:11.996Z,2.42
2022-09-30T11:05:43.522Z,1.20
2022-09-30T11:08:30.187Z,2.55
2022-09-30T11:11:02.783Z,1.40
2022-09-30T11:13:58.482Z,1.23
2022-09-30T11:16:44.721Z,1.33
2022-09-30T11:19:40.262Z,1.40
2022-09-30T11:22:44.705Z,1.87
2022-09-30T11:25:49.706Z,1.62
2022-09-30T11:28:29.324Z,1.87
2022-09-30T11:31:17.149Z,1.25
2022-09-30T11:34:24.164Z,1.17
2022-09-30T11:37:28.758Z,1.12
2022-09-30T11:40:44.129Z,1.17
2022-09-30T11:43:23.709Z,1.60
2022-09-30T11:46:27.177Z,0.90
2022-09-30T11:49:28.188Z,0.80
2022-09-30T11:52:29.493Z,0.70
2022-09-30T11:55:10.619Z,0.75
2022-09-30T11:58:12.075Z,0.90
2022-09-30T12:00:56.863Z,0.85
2022-09-30T12:03:31.513Z,1.10
2022-09-30T12:06:15.524Z,1.27
2022-09-30T12:08:51.646Z,1.10
2022-09-30T12:11:26.594Z,0.93
2022-09-30T12:13:58.697Z,0.90
2022-09-30T12:16:30.893Z,1.30
2022-09-30T12:19:47.771Z,1.33
2022-09-30T12:22:42.199Z,0.90
2022-09-30T12:25:19.806Z,1.02
2022-09-30T12:28:25.034Z,1.87
2022-09-30T12:31:01.227Z,1.65
2022-09-30T12:33:53.778Z,1.35
2022-09-30T12:36:32.812Z,1.23
2022-09-30T12:39:39.628Z,1.90
2022-09-30T12:42:36.724Z,1.40
2022-09-30T12:45:46.915Z,1.48
2022-09-30T12:48:19.589Z,1.35
2022-09-30T12:50:51.528Z,2.12
2022-09-30T12:53:25.253Z,1.20
2022-09-30T12:55:53.543Z,1.42
2022-09-30T12:58:31.884Z,1.30
2022-09-30T13:01:27.810Z,1.67
2022-09-30T13:03:58.335Z,1.35
2022-09-30T13:06:28.092Z,0.90
2022-09-30T13:08:59.084Z,1.45
2022-09-30T13:11:37.453Z,1.27
2022-09-30T13:14:14.810Z,1.42
2022-09-30T13:17:11.338Z,2.05
2022-09-30T13:19:42.115Z,1.58
2022-09-30T13:22:21.829Z,1.25
2022-09-30T13:25:01.770Z,1.60
2022-09-30T13:28:13.991Z,1.50
2022-09-30T13:30:42.161Z,1.50
2022-09-30T13:33:31.976Z,1.40
2022-09-30T13:36:07.693Z,1.37
2022-09-30T13:38:41.482Z,1.50
2022-09-30T13:41:17.994Z,1.77
2022-09-30T13:44:09.151Z,2.00
2022-09-30T13:46:51.047Z,2.28
2022-09-30T13:49:50.357Z,1.62
2022-09-30T13:52:26.254Z,2.00
2022-09-30T13:54:56.359Z,1.83
2022-09-30T13:57:40.432Z,3.87
2022-09-30T14:00:19.031Z,1.50
2022-09-30T14:03:22.455Z,3.03
2022-09-30T14:06:08.463Z,2.37
2022-09-30T14:08:47.602Z,1.98
2022-09-30T14:11:53.935Z,1.80
2022-09-30T14:14:44.944Z,1.65
2022-09-30T14:17:33.487Z,1.95
2022-09-30T14:20:16.467Z,1.70
2022-09-30T14:22:44.196Z,2.40
2022-09-30T14:25:18.090Z,1.75
2022-09-30T14:28:05.430Z,1.83
2022-09-30T14:30:47.314Z,2.37
2022-09-30T14:33:29.434Z,1.62
2022-09-30T14:35:57.166Z,3.05
2022-09-30T14:38:29.192Z,1.90
2022-09-30T14:40:59.988Z,2.35
2022-09-30T14:43:41.783Z,2.10
2022-09-30T14:46:39.867Z,2.50
2022-09-30T14:49:13.508Z,1.87
2022-09-30T14:51:44.626Z,1.67
2022-09-30T14:54:21.778Z,1.95
2022-09-30T14:56:50.785Z,1.70
2022-09-30T14:59:28.172Z,1.90
2022-09-30T15:02:04.476Z,2.00
2022-09-30T15:04:36.061Z,2.30
2022-09-30T15:07:07.975Z,2.25
2022-09-30T15:09:38.562Z,1.98
2022-09-30T15:12:15.026Z,1.80
2022-09-30T15:15:00.643Z,2.42
2022-09-30T15:17:37.966Z,1.50
2022-09-30T15:20:31.431Z,1.92
2022-09-30T15:23:05.399Z,1.92
2022-09-30T15:25:33.328Z,1.98
2022-09-30T15:28:01.099Z,1.65
2022-09-30T15:30:30.385Z,3.80
2022-09-30T15:33:00.945Z,1.65
2022-09-30T15:35:29.502Z,1.90
2022-09-30T15:38:09.669Z,2.85
2022-09-30T15:40:54.323Z,3.40
2022-09-30T15:43:35.542Z,2.87
2022-09-30T15:46:36.394Z,3.85
2022-09-30T15:49:30.149Z,2.00
2022-09-30T15:52:37.547Z,1.60
2022-09-30T15:55:42.839Z,1.75
2022-09-30T15:58:40.617Z,1.83
2022-09-30T16:01:15.251Z,1.33
2022-09-30T16:04:06.598Z,1.67
2022-09-30T16:06:59.512Z,1.45
2022-09-30T16:09:33.809Z,1.27
2022-09-30T16:12:23.374Z,1.60
2022-09-30T16:14:53.749Z,2.60
2022-09-30T16:17:31.045Z,3.35
2022-09-30T16:20:01.785Z,4.70
2022-09-30T16:22:50.492Z,2.62
2022-09-30T16:25:20.621Z,2.20
2022-09-30T16:27:49.224Z,3.22
2022-09-30T16:30:19.853Z,1.90
2022-09-30T16:32:51.806Z,3.33
2022-09-30T16:35:24.746Z,5.30
2022-09-30T16:38:02.526Z,3.08
2022-09-30T16:40:32.206Z,3.08
2022-09-30T16:43:03.190Z,2.22
2022-09-30T16:45:33.925Z,2.95
2022-09-30T16:48:03.135Z,3.87
2022-09-30T16:50:44.910Z,2.20
2022-09-30T16:53:12.630Z,3.40
2022-09-30T16:55:41.203Z,2.15
2022-09-30T16:58:13.329Z,3.35
2022-09-30T17:00:45.695Z,2.75
2022-09-30T17:03:18.827Z,1.90
2022-09-30T17:05:52.850Z,3.62
2022-09-30T17:08:22.378Z,3.37
2022-09-30T17:10:51.123Z,2.92
2022-09-30T17:13:19.687Z,2.90
2022-09-30T17:15:52.812Z,2.67
2022-09-30T17:18:21.143Z,2.70
2022-09-30T17:20:56.978Z,3.53
2022-09-30T17:23:26.456Z,3.42
2022-09-30T17:25:55.834Z,3.20
2022-09-30T17:28:24.239Z,3.10
2022-09-30T17:30:52.050Z,3.53
2022-09-30T17:33:20.874Z,3.78
2022-09-30T17:36:02.072Z,3.60
2022-09-30T17:38:30.333Z,5.10
2022-09-30T17:41:16.843Z,4.22
2022-09-30T17:43:46.506Z,4.35
2022-09-30T17:46:19.942Z,4.15
2022-09-30T17:48:47.950Z,4.68
2022-09-30T17:51:19.578Z,3.78
2022-09-30T17:53:47.775Z,4.62
2022-09-30T17:56:20.416Z,3.53
2022-09-30T17:58:50.224Z,7.90
2022-09-30T18:01:21.383Z,5.82
2022-09-30T18:03:50.343Z,5.45
2022-09-30T18:06:18.019Z,4.43
2022-09-30T18:08:49.635Z,4.32
2022-09-30T18:11:28.112Z,4.07
2022-09-30T18:14:00.554Z,4.85
2022-09-30T18:16:32.552Z,4.65
2022-09-30T18:19:02.442Z,13.07
2022-09-30T18:21:30.879Z,11.95
2022-09-30T18:23:59.186Z,11.95
2022-09-30T18:26:33.320Z,12.50
2022-09-30T18:29:02.735Z,11.82
2022-09-30T18:31:35.784Z,9.80
2022-09-30T18:34:05.867Z,9.45
2022-09-30T18:36:33.745Z,6.15
2022-09-30T18:39:03.189Z,6.35
2022-09-30T18:41:35.547Z,6.45
2022-09-30T18:44:03.887Z,6.25
2022-09-30T18:46:32.455Z,6.03
2022-09-30T18:49:00.103Z,6.50
2022-09-30T18:51:27.788Z,6.15
2022-09-30T18:53:58.720Z,8.77
2022-09-30T18:56:32.868Z,8.10
2022-09-30T18:59:02.443Z,11.07
2022-09-30T19:01:30.664Z,9.07
2022-09-30T19:03:58.586Z,8.68
2022-09-30T19:06:26.711Z,7.70
2022-09-30T19:08:54.427Z,8.00
2022-09-30T19:11:24.025Z,6.32
2022-09-30T19:13:53.847Z,8.20
2022-09-30T19:16:21.489Z,6.35
2022-09-30T19:18:49.161Z,6.10
2022-09-30T19:21:21.191Z,5.85
2022-09-30T19:23:49.744Z,6.07
2022-09-30T19:26:17.412Z,13.43
2022-09-30T19:28:45.281Z,10.43
2022-09-30T19:31:17.981Z,9.63
2022-09-30T19:33:55.966Z,8.07
2022-09-30T19:36:25.858Z,8.75
2022-09-30T19:39:04.291Z,9.20
2022-09-30T19:41:36.692Z,9.07
2022-09-30T19:44:04.659Z,8.68
2022-09-30T19:46:32.497Z,12.15
2022-09-30T19:49:00.253Z,8.30
2022-09-30T19:51:30.239Z,9.05
2022-09-30T19:54:06.338Z,9.25
2022-09-30T19:56:36.349Z,9.60
2022-09-30T19:59:04.536Z,8.48
2022-09-30T20:01:35.626Z,6.40
2022-09-30T20:04:06.010Z,6.70
2022-09-30T20:06:35.312Z,6.65
2022-09-30T20:09:05.516Z,5.72
2022-09-30T20:11:35.274Z,6.93
2022-09-30T20:14:25.400Z,4.60
2022-09-30T20:16:55.391Z,4.90
2022-09-30T20:19:24.157Z,5.28
2022-09-30T20:21:53.462Z,4.20
2022-09-30T20:24:22.141Z,4.87
2022-09-30T20:26:51.245Z,5.15
2022-09-30T20:29:21.614Z,4.40
2022-09-30T20:31:50.302Z,5.50
2022-09-30T20:34:18.814Z,5.85
2022-09-30T20:36:46.897Z,7.82
2022-09-30T20:39:14.569Z,10.55
2022-09-30T20:41:42.890Z,7.20
2022-09-30T20:44:15.416Z,5.75
2022-09-30T20:46:43.993Z,6.47
2022-09-30T20:49:11.674Z,5.85
2022-09-30T20:51:39.345Z,4.85
2022-09-30T20:54:07.059Z,5.47
2022-09-30T20:56:50.118Z,5.25
2022-09-30T20:59:22.625Z,6.50
2022-09-30T21:01:50.284Z,5.05
2022-09-30T21:04:17.912Z,4.62
2022-09-30T21:06:45.537Z,3.50
2022-09-30T21:09:13.924Z,4.20
2022-09-30T21:11:43.178Z,4.07
2022-09-30T21:14:10.841Z,4.20
2022-09-30T21:16:38.561Z,4.50
2022-09-30T21:19:06.290Z,3.65
2022-09-30T21:21:34.201Z,5.37
2022-09-30T21:24:02.628Z,4.95
2022-09-30T21:26:31.071Z,6.03
2022-09-30T21:28:58.662Z,4.22
2022-09-30T21:31:28.283Z,5.32
2022-09-30T21:33:59.334Z,4.32
2022-09-30T21:36:29.058Z,5.55
2022-09-30T21:39:02.422Z,6.05
2022-09-30T21:41:31.306Z,5.60
2022-09-30T21:43:59.875Z,5.70
2022-09-30T21:46:30.500Z,4.65
2022-09-30T21:49:14.789Z,6.07
2022-09-30T21:51:42.905Z,5.28
2022-09-30T21:54:12.845Z,5.32
2022-09-30T21:56:44.701Z,5.05
2022-09-30T21:59:13.891Z,5.55
2022-09-30T22:01:41.941Z,6.60
2022-09-30T22:04:09.998Z,4.30
2022-09-30T22:06:37.666Z,4.62
2022-09-30T22:09:06.278Z,4.90
2022-09-30T22:11:34.126Z,4.68
2022-09-30T22:14:02.473Z,3.87
2022-09-30T22:16:35.779Z,3.12
2022-09-30T22:19:06.038Z,3.12
2022-09-30T22:24:06.579Z,3.67
2022-09-30T22:26:34.911Z,3.80
2022-09-30T22:29:06.600Z,2.95
2022-09-30T22:31:35.635Z,3.45
2022-09-30T22:34:24.746Z,3.45
2022-09-30T22:37:11.349Z,4.57
2022-09-30T22:39:38.992Z,3.00
2022-09-30T22:42:07.164Z,3.47
2022-09-30T22:44:36.821Z,4.20
2022-09-30T22:47:05.441Z,3.90
2022-09-30T22:49:36.107Z,4.22
2022-09-30T22:52:04.675Z,4.72
2022-09-30T22:54:32.570Z,3.67
2022-09-30T22:57:00.409Z,3.40
2022-09-30T22:59:29.536Z,3.55
2022-09-30T23:01:58.230Z,3.87
2022-09-30T23:04:27.815Z,3.33
2022-09-30T23:06:58.957Z,3.65
2022-09-30T23:09:26.667Z,5.47
2022-09-30T23:11:56.097Z,3.92
2022-09-30T23:14:24.067Z,3.55
2022-09-30T23:16:52.385Z,4.82
2022-09-30T23:19:20.620Z,3.67
2022-09-30T23:21:48.763Z,3.37
2022-09-30T23:24:16.724Z,4.10
2022-09-30T23:26:44.659Z,3.30
2022-09-30T23:29:15.122Z,5.20
2022-09-30T23:31:43.178Z,3.50
2022-09-30T23:34:11.014Z,3.50
2022-09-30T23:36:39.105Z,3.47
2022-09-30T23:39:13.461Z,3.85
2022-09-30T23:41:41.470Z,3.95
2022-09-30T23:44:11.079Z,3.60
2022-09-30T23:46:38.698Z,3.83
2022-09-30T23:49:09.404Z,5.80
2022-09-30T23:51:37.138Z,4.05
2022-09-30T23:54:04.838Z,3.45
2022-09-30T23:56:33.225Z,5.12
2022-09-30T23:59:00.974Z,3.50
